createdAt,value
2019-05-05T00:00:40.345Z,99.90
2019-05-05T00:02:46.966Z,99.90
2019-05-05T00:04:50.539Z,99.90
2019-05-05T00:06:44.546Z,99.90
2019-05-05T00:08:37.839Z,99.90
2019-05-05T00:10:37.488Z,99.90
2019-05-05T00:12:48.715Z,99.90
2019-05-05T00:14:44.249Z,99.90
2019-05-05T00:16:39.368Z,99.90
2019-05-05T00:18:34.548Z,99.90
2019-05-05T00:20:27.623Z,99.90
2019-05-05T00:22:20.751Z,99.90
2019-05-05T00:24:15.177Z,99.90
2019-05-05T00:26:07.979Z,99.90
2019-05-05T00:28:01.433Z,99.90
2019-05-05T00:29:55.872Z,99.90
2019-05-05T00:31:49.393Z,99.90
2019-05-05T00:33:41.615Z,99.90
2019-05-05T00:35:34.940Z,99.90
2019-05-05T00:37:28.028Z,99.90
2019-05-05T00:39:20.319Z,99.90
2019-05-05T00:41:14.874Z,99.90
2019-05-05T00:43:08.008Z,99.90
2019-05-05T00:45:00.274Z,99.90
2019-05-05T00:46:55.063Z,99.90
2019-05-05T00:48:48.589Z,99.90
2019-05-05T00:50:41.803Z,99.90
2019-05-05T00:52:35.159Z,99.90
2019-05-05T00:54:28.524Z,99.90
2019-05-05T00:56:25.098Z,99.90
2019-05-05T00:58:18.251Z,99.90
2019-05-05T01:00:19.004Z,99.90
2019-05-05T01:02:15.066Z,99.90
2019-05-05T01:04:10.067Z,99.90
2019-05-05T01:06:04.679Z,99.90
2019-05-05T01:07:57.795Z,99.90
2019-05-05T01:09:51.081Z,99.90
2019-05-05T01:11:44.631Z,99.90
2019-05-05T01:13:37.804Z,99.90
2019-05-05T01:15:30.834Z,99.90
2019-05-05T01:17:25.343Z,99.90
2019-05-05T01:19:18.441Z,99.90
2019-05-05T01:21:11.602Z,99.90
2019-05-05T01:23:04.415Z,99.90
2019-05-05T01:24:57.488Z,99.90
2019-05-05T01:26:50.594Z,99.90
2019-05-05T01:28:44.691Z,99.90
2019-05-05T01:30:40.956Z,99.90
2019-05-05T01:32:35.611Z,99.90
2019-05-05T01:34:30.406Z,99.90
2019-05-05T01:36:24.195Z,99.90
2019-05-05T01:38:19.255Z,99.90
2019-05-05T01:40:24.825Z,99.90
2019-05-05T01:42:18.192Z,99.90
2019-05-05T01:44:11.372Z,99.90
2019-05-05T01:46:05.080Z,99.90
2019-05-05T01:47:58.531Z,99.90
2019-05-05T01:49:51.267Z,99.90
2019-05-05T01:51:44.820Z,99.90
2019-05-05T01:53:37.732Z,99.90
2019-05-05T01:55:34.560Z,99.90
2019-05-05T01:57:27.117Z,99.90
2019-05-05T01:59:20.017Z,99.90
2019-05-05T02:01:15.145Z,99.90
2019-05-05T02:03:08.013Z,99.90
2019-05-05T02:05:01.344Z,99.90
2019-05-05T02:06:54.965Z,99.90
2019-05-05T02:08:47.412Z,99.90
2019-05-05T02:10:41.713Z,99.90
2019-05-05T02:12:35.380Z,99.90
2019-05-05T02:14:28.776Z,99.90
2019-05-05T02:16:21.009Z,99.90
2019-05-05T02:18:14.900Z,99.90
2019-05-05T02:20:08.535Z,99.90
2019-05-05T02:22:01.587Z,99.90
2019-05-05T02:23:54.945Z,99.90
2019-05-05T02:25:48.347Z,99.90
2019-05-05T02:27:41.692Z,99.90
2019-05-05T02:29:39.211Z,99.90
2019-05-05T02:31:36.010Z,99.90
2019-05-05T02:33:28.577Z,99.90
2019-05-05T02:35:22.019Z,99.90
2019-05-05T02:37:16.011Z,99.90
2019-05-05T02:39:10.876Z,99.90
2019-05-05T02:41:05.244Z,99.90
2019-05-05T02:42:58.940Z,99.90
2019-05-05T02:44:54.380Z,99.90
2019-05-05T02:46:49.815Z,99.90
2019-05-05T02:48:45.002Z,99.90
2019-05-05T02:50:57.480Z,99.90
2019-05-05T02:52:46.600Z,99.90
2019-05-05T02:54:39.985Z,99.90
2019-05-05T02:56:46.254Z,99.90
2019-05-05T02:58:40.815Z,99.90
2019-05-05T03:00:35.674Z,99.90
2019-05-05T03:02:31.335Z,99.90
2019-05-05T03:04:26.434Z,99.90
2019-05-05T03:06:19.887Z,99.90
2019-05-05T03:08:13.882Z,99.90
2019-05-05T03:10:08.467Z,99.90
2019-05-05T03:12:04.773Z,99.90
2019-05-05T03:14:00.561Z,99.90
2019-05-05T03:16:16.426Z,99.90
2019-05-05T03:18:11.100Z,99.90
2019-05-05T03:20:06.908Z,99.90
2019-05-05T03:22:00.021Z,99.90
2019-05-05T03:23:54.755Z,99.90
2019-05-05T03:25:48.416Z,99.90
2019-05-05T03:27:41.255Z,99.90
2019-05-05T03:29:34.699Z,99.90
2019-05-05T03:31:28.861Z,99.90
2019-05-05T03:33:25.017Z,99.90
2019-05-05T03:35:17.368Z,99.90
2019-05-05T03:37:10.668Z,99.90
2019-05-05T03:39:05.956Z,99.90
2019-05-05T03:41:03.595Z,99.90
2019-05-05T03:42:58.983Z,99.90
2019-05-05T03:44:57.094Z,99.90
2019-05-05T03:46:51.131Z,99.90
2019-05-05T03:48:45.495Z,99.90
2019-05-05T03:50:38.847Z,99.90
2019-05-05T03:52:34.065Z,99.90
2019-05-05T03:54:27.231Z,99.90
2019-05-05T03:56:21.227Z,99.90
2019-05-05T03:58:14.755Z,99.90
2019-05-05T04:00:08.681Z,99.90
2019-05-05T04:02:03.968Z,99.90
2019-05-05T04:03:58.576Z,99.90
2019-05-05T04:05:54.189Z,99.90
2019-05-05T04:07:47.235Z,99.90
2019-05-05T04:09:40.545Z,99.90
2019-05-05T04:11:33.928Z,99.90
2019-05-05T04:13:29.043Z,99.90
2019-05-05T04:15:22.025Z,99.90
2019-05-05T04:17:19.332Z,99.90
2019-05-05T04:19:15.098Z,99.90
2019-05-05T04:21:08.323Z,99.90
2019-05-05T04:23:03.728Z,99.90
2019-05-05T04:24:57.220Z,99.90
2019-05-05T04:26:50.262Z,99.90
2019-05-05T04:28:43.663Z,99.90
2019-05-05T04:30:36.980Z,99.90
2019-05-05T04:32:29.798Z,99.90
2019-05-05T04:34:24.109Z,99.90
2019-05-05T04:36:17.596Z,99.90
2019-05-05T04:38:09.924Z,99.90
2019-05-05T04:40:04.169Z,99.90
2019-05-05T04:41:57.238Z,99.90
2019-05-05T04:43:50.152Z,99.90
2019-05-05T04:45:43.725Z,99.90
2019-05-05T04:47:43.638Z,99.90
2019-05-05T04:49:38.920Z,99.90
2019-05-05T04:51:47.138Z,99.90
2019-05-05T04:53:34.707Z,99.90
2019-05-05T04:55:27.998Z,99.90
2019-05-05T04:57:21.218Z,99.90
2019-05-05T04:59:14.448Z,99.90
2019-05-05T05:01:07.948Z,99.90
2019-05-05T05:03:05.468Z,99.90
2019-05-05T05:05:14.363Z,99.90
2019-05-05T05:07:07.905Z,99.90
2019-05-05T05:09:00.976Z,99.90
2019-05-05T05:10:54.939Z,99.90
2019-05-05T05:12:48.198Z,99.90
2019-05-05T05:14:41.493Z,99.90
2019-05-05T05:16:35.678Z,99.90
2019-05-05T05:18:28.904Z,99.90
2019-05-05T05:20:22.192Z,99.90
2019-05-05T05:22:34.377Z,99.90
2019-05-05T05:24:27.154Z,99.90
2019-05-05T05:26:20.425Z,99.90
2019-05-05T05:28:14.332Z,99.90
2019-05-05T05:30:08.085Z,99.90
2019-05-05T05:32:00.829Z,99.90
2019-05-05T05:33:54.915Z,99.90
2019-05-05T05:35:48.354Z,99.90
2019-05-05T05:37:41.375Z,99.90
2019-05-05T05:39:35.747Z,99.90
2019-05-05T05:41:36.003Z,99.90
2019-05-05T05:43:30.921Z,99.90
2019-05-05T05:45:26.971Z,99.90
2019-05-05T05:47:21.928Z,99.90
2019-05-05T05:49:16.660Z,99.90
2019-05-05T05:51:14.527Z,99.90
2019-05-05T05:53:08.917Z,99.90
2019-05-05T05:55:03.953Z,99.90
2019-05-05T05:56:56.200Z,99.90
2019-05-05T05:58:49.518Z,99.90
2019-05-05T06:00:44.606Z,99.90
2019-05-05T06:02:37.637Z,99.90
2019-05-05T06:04:29.927Z,99.90
2019-05-05T06:06:24.120Z,99.90
2019-05-05T06:08:17.765Z,99.90
2019-05-05T06:10:21.340Z,99.90
2019-05-05T06:12:05.986Z,99.90
2019-05-05T06:13:59.154Z,99.90
2019-05-05T06:15:53.414Z,99.90
2019-05-05T06:17:46.473Z,99.90
2019-05-05T06:19:39.448Z,99.90
2019-05-05T06:21:33.759Z,99.90
2019-05-05T06:23:26.991Z,99.90
2019-05-05T06:25:20.274Z,99.90
2019-05-05T06:27:14.282Z,99.90
2019-05-05T06:29:08.020Z,99.90
2019-05-05T06:31:00.999Z,99.90
2019-05-05T06:32:54.600Z,99.90
2019-05-05T06:34:48.468Z,99.90
2019-05-05T06:36:41.915Z,99.90
2019-05-05T06:38:35.160Z,99.90
2019-05-05T06:40:29.971Z,99.90
2019-05-05T06:42:34.367Z,99.90
2019-05-05T06:44:33.787Z,99.90
2019-05-05T06:46:44.586Z,99.90
2019-05-05T06:48:37.854Z,99.90
2019-05-05T06:50:30.832Z,99.90
2019-05-05T06:52:24.740Z,99.90
2019-05-05T06:54:17.989Z,99.90
2019-05-05T06:56:11.276Z,99.90
2019-05-05T06:58:04.724Z,99.90
2019-05-05T06:59:57.729Z,99.90
2019-05-05T07:01:50.055Z,99.90
2019-05-05T07:03:43.964Z,99.90
2019-05-05T07:05:37.245Z,99.90
2019-05-05T07:07:30.600Z,99.90
2019-05-05T07:09:24.449Z,99.90
2019-05-05T07:11:17.936Z,99.90
2019-05-05T07:13:10.941Z,99.90
2019-05-05T07:15:07.439Z,99.90
2019-05-05T07:17:00.979Z,99.90
2019-05-05T07:18:53.940Z,99.90
2019-05-05T07:20:48.563Z,99.90
2019-05-05T07:23:01.330Z,99.90
2019-05-05T07:24:44.954Z,99.90
2019-05-05T07:26:38.108Z,99.90
2019-05-05T07:28:31.025Z,99.90
2019-05-05T07:30:24.334Z,99.90
2019-05-05T07:32:18.062Z,99.90
2019-05-05T07:34:13.668Z,99.90
2019-05-05T07:36:25.288Z,99.90
2019-05-05T07:38:18.252Z,99.90
2019-05-05T07:40:13.540Z,99.90
2019-05-05T07:42:07.420Z,99.90
2019-05-05T07:44:00.493Z,99.90
2019-05-05T07:45:54.038Z,99.90
2019-05-05T07:47:47.694Z,99.90
2019-05-05T07:49:40.805Z,99.90
2019-05-05T07:51:33.932Z,99.90
2019-05-05T07:53:26.267Z,99.90
2019-05-05T07:55:19.074Z,99.90
2019-05-05T07:57:12.086Z,99.90
2019-05-05T07:59:04.484Z,99.90
2019-05-05T08:00:57.810Z,99.90
2019-05-05T08:02:51.075Z,99.80
2019-05-05T08:04:34.687Z,99.00
2019-05-05T08:06:28.055Z,99.30
2019-05-05T08:08:20.351Z,99.40
2019-05-05T08:10:13.786Z,99.20
2019-05-05T08:12:07.240Z,98.70
2019-05-05T08:14:01.217Z,99.20
2019-05-05T08:15:59.788Z,98.20
2019-05-05T08:18:10.549Z,97.40
2019-05-05T08:20:10.010Z,96.90
2019-05-05T08:22:03.801Z,97.00
2019-05-05T08:23:58.789Z,99.10
2019-05-05T08:25:56.430Z,98.60
2019-05-05T08:27:57.519Z,99.00
2019-05-05T08:29:54.169Z,98.90
2019-05-05T08:31:54.788Z,97.50
2019-05-05T08:33:47.713Z,96.30
2019-05-05T08:35:40.965Z,97.40
2019-05-05T08:37:38.578Z,98.50
2019-05-05T08:39:34.458Z,96.40
2019-05-05T08:41:27.702Z,97.00
2019-05-05T08:43:20.942Z,97.40
2019-05-05T08:45:14.567Z,98.50
2019-05-05T08:49:04.422Z,97.10
2019-05-05T08:50:57.720Z,96.20
2019-05-05T08:52:50.688Z,96.60
2019-05-05T08:54:44.619Z,96.90
2019-05-05T08:56:38.197Z,95.30
2019-05-05T08:58:31.111Z,95.50
2019-05-05T09:00:24.588Z,96.30
2019-05-05T09:02:17.975Z,96.60
2019-05-05T09:04:11.321Z,97.20
2019-05-05T09:06:05.548Z,97.00
2019-05-05T09:07:59.365Z,96.70
2019-05-05T09:09:54.480Z,96.00
2019-05-05T09:11:47.262Z,95.40
2019-05-05T09:13:40.247Z,96.10
2019-05-05T09:15:33.847Z,94.50
2019-05-05T09:17:28.113Z,94.60
2019-05-05T09:19:24.020Z,94.10
2019-05-05T09:21:17.505Z,94.30
2019-05-05T09:23:11.020Z,95.20
2019-05-05T09:25:13.690Z,94.80
2019-05-05T09:27:08.811Z,93.90
2019-05-05T09:29:20.161Z,93.70
2019-05-05T09:31:14.639Z,93.40
2019-05-05T09:32:54.170Z,93.50
2019-05-05T09:34:30.747Z,93.80
2019-05-05T09:36:07.464Z,92.10
2019-05-05T09:37:44.319Z,92.20
2019-05-05T09:39:23.868Z,92.80
2019-05-05T09:40:59.851Z,91.70
2019-05-05T09:42:36.172Z,92.30
2019-05-05T09:44:13.613Z,93.10
2019-05-05T09:45:50.035Z,93.40
2019-05-05T09:47:26.468Z,95.20
2019-05-05T09:49:04.670Z,92.60
2019-05-05T09:50:40.995Z,96.40
2019-05-05T09:52:17.354Z,94.80
2019-05-05T09:53:54.282Z,93.20
2019-05-05T09:55:30.703Z,92.10
2019-05-05T09:57:24.008Z,93.50
2019-05-05T09:59:16.325Z,97.80
2019-05-05T10:01:09.175Z,93.40
2019-05-05T10:03:03.795Z,93.40
2019-05-05T10:04:57.593Z,91.30
2019-05-05T10:06:50.342Z,91.80
2019-05-05T10:08:44.680Z,89.70
2019-05-05T10:10:38.221Z,91.90
2019-05-05T10:12:33.713Z,92.90
2019-05-05T10:14:26.261Z,88.40
2019-05-05T10:16:03.969Z,92.90
2019-05-05T10:17:41.047Z,87.70
2019-05-05T10:19:17.163Z,87.70
2019-05-05T10:20:54.091Z,93.40
2019-05-05T10:22:30.633Z,93.60
2019-05-05T10:24:30.098Z,90.30
2019-05-05T10:26:06.992Z,93.50
2019-05-05T10:27:47.443Z,87.80
2019-05-05T10:29:22.524Z,91.60
2019-05-05T10:30:58.605Z,91.30
2019-05-05T10:32:34.636Z,83.50
2019-05-05T10:34:13.627Z,82.20
2019-05-05T10:35:51.487Z,81.60
2019-05-05T10:37:28.902Z,84.40
2019-05-05T10:39:08.538Z,80.70
2019-05-05T10:40:45.175Z,80.20
2019-05-05T10:42:24.977Z,84.70
2019-05-05T10:44:00.983Z,87.70
2019-05-05T10:45:37.107Z,89.30
2019-05-05T10:47:15.803Z,88.30
2019-05-05T10:48:53.790Z,86.20
2019-05-05T10:50:30.043Z,85.80
2019-05-05T10:52:06.168Z,83.80
2019-05-05T10:53:43.804Z,87.70
2019-05-05T10:55:21.104Z,88.80
2019-05-05T10:56:57.880Z,88.40
2019-05-05T10:58:33.942Z,88.10
2019-05-05T11:00:14.804Z,87.00
2019-05-05T11:01:49.353Z,87.90
2019-05-05T11:03:25.690Z,89.60
2019-05-05T11:05:03.973Z,88.80
2019-05-05T11:06:40.423Z,87.90
2019-05-05T11:08:34.961Z,88.10
2019-05-05T11:10:34.006Z,87.90
2019-05-05T11:12:27.327Z,88.60
2019-05-05T11:14:19.660Z,88.70
2019-05-05T11:16:14.418Z,87.00
2019-05-05T11:18:07.649Z,86.70
2019-05-05T11:20:01.080Z,90.00
2019-05-05T11:21:54.614Z,90.30
2019-05-05T11:23:47.600Z,93.90
2019-05-05T11:25:40.399Z,95.00
2019-05-05T11:27:34.526Z,96.60
2019-05-05T11:29:28.080Z,97.10
2019-05-05T11:31:21.269Z,98.00
2019-05-05T11:33:15.585Z,99.60
2019-05-05T11:34:53.087Z,99.90
2019-05-05T11:36:34.602Z,99.90
2019-05-05T11:38:11.062Z,98.50
2019-05-05T11:39:49.149Z,99.20
2019-05-05T11:41:25.237Z,99.00
2019-05-05T11:43:03.623Z,98.90
2019-05-05T11:44:39.300Z,98.90
2019-05-05T11:46:15.313Z,98.70
2019-05-05T11:47:51.352Z,96.20
2019-05-05T11:49:27.428Z,96.60
2019-05-05T11:51:04.552Z,95.70
2019-05-05T11:52:41.117Z,96.00
2019-05-05T11:54:17.139Z,96.10
2019-05-05T11:56:10.097Z,95.30
2019-05-05T11:58:03.645Z,95.50
2019-05-05T11:59:57.188Z,93.80
2019-05-05T12:01:49.619Z,94.50
2019-05-05T12:03:44.372Z,93.10
2019-05-05T12:05:37.491Z,92.60
2019-05-05T12:07:30.338Z,92.80
2019-05-05T12:09:24.987Z,95.30
2019-05-05T12:11:18.216Z,93.60
2019-05-05T12:13:12.007Z,94.50
2019-05-05T12:15:07.313Z,93.40
2019-05-05T12:17:04.594Z,93.80
2019-05-05T12:18:58.624Z,94.10
2019-05-05T12:20:51.799Z,93.70
2019-05-05T12:22:45.218Z,94.10
2019-05-05T12:24:39.114Z,93.70
2019-05-05T12:26:16.953Z,92.50
2019-05-05T12:28:24.971Z,91.10
2019-05-05T12:30:18.552Z,92.90
2019-05-05T12:32:12.978Z,92.80
2019-05-05T12:34:05.974Z,91.30
2019-05-05T12:35:42.072Z,92.80
2019-05-05T12:37:18.683Z,92.10
2019-05-05T12:38:54.818Z,92.60
2019-05-05T12:40:31.123Z,93.40
2019-05-05T12:42:07.708Z,92.30
2019-05-05T12:43:44.254Z,92.50
2019-05-05T12:45:39.544Z,93.30
2019-05-05T12:47:34.309Z,93.30
2019-05-05T12:49:27.417Z,93.50
2019-05-05T12:51:20.328Z,92.90
2019-05-05T12:53:14.579Z,92.90
2019-05-05T12:55:08.166Z,94.00
2019-05-05T12:57:01.751Z,93.80
2019-05-05T12:58:54.905Z,94.50
2019-05-05T13:00:49.325Z,93.90
2019-05-05T13:02:44.187Z,93.50
2019-05-05T13:04:37.627Z,93.00
2019-05-05T13:06:30.400Z,91.40
2019-05-05T13:08:23.864Z,91.40
2019-05-05T13:10:19.560Z,90.90
2019-05-05T13:12:14.874Z,91.80
2019-05-05T13:14:08.452Z,91.10
2019-05-05T13:15:58.541Z,91.20
2019-05-05T13:17:34.939Z,90.20
2019-05-05T13:19:14.641Z,91.80
2019-05-05T13:21:08.993Z,93.10
2019-05-05T13:22:47.231Z,94.50
2019-05-05T13:24:34.393Z,95.10
2019-05-05T13:26:14.342Z,94.80
2019-05-05T13:27:50.479Z,95.60
2019-05-05T13:29:27.264Z,97.30
2019-05-05T13:31:04.696Z,97.80
2019-05-05T13:32:41.280Z,99.90
2019-05-05T13:34:17.892Z,99.90
2019-05-05T13:35:53.962Z,99.90
2019-05-05T13:37:30.337Z,99.90
2019-05-05T13:39:08.556Z,99.90
2019-05-05T13:40:46.457Z,99.90
2019-05-05T13:42:24.355Z,99.90
2019-05-05T13:44:04.362Z,99.90
2019-05-05T13:45:58.527Z,99.90
2019-05-05T13:47:54.030Z,99.90
2019-05-05T13:49:46.825Z,99.90
2019-05-05T13:51:39.821Z,99.90
2019-05-05T13:53:34.241Z,99.90
2019-05-05T13:55:28.944Z,99.90
2019-05-05T13:57:21.730Z,99.90
2019-05-05T13:59:14.297Z,99.90
2019-05-05T14:01:09.835Z,99.90
2019-05-05T14:03:03.867Z,99.90
2019-05-05T14:04:57.313Z,99.90
2019-05-05T14:06:50.288Z,99.90
2019-05-05T14:08:44.632Z,98.70
2019-05-05T14:10:37.563Z,98.50
2019-05-05T14:12:30.556Z,98.60
2019-05-05T14:14:24.225Z,98.40
2019-05-05T14:16:17.410Z,97.00
2019-05-05T14:18:09.788Z,97.30
2019-05-05T14:20:09.455Z,97.40
2019-05-05T14:21:57.728Z,97.70
2019-05-05T14:23:55.348Z,97.20
2019-05-05T14:25:48.659Z,95.80
2019-05-05T14:27:43.533Z,95.70
2019-05-05T14:31:41.323Z,92.90
2019-05-05T14:33:36.357Z,89.90
2019-05-05T14:35:34.254Z,80.90
2019-05-05T14:37:29.338Z,81.00
2019-05-05T14:39:23.967Z,79.20
2019-05-05T14:41:17.053Z,77.60
2019-05-05T14:43:10.034Z,72.00
2019-05-05T14:45:04.775Z,71.50
2019-05-05T14:46:58.678Z,71.60
2019-05-05T14:48:53.516Z,74.90
2019-05-05T14:50:46.775Z,79.80
2019-05-05T14:52:40.323Z,79.20
2019-05-05T14:54:34.314Z,78.30
2019-05-05T14:56:36.109Z,80.30
2019-05-05T14:58:21.823Z,84.50
2019-05-05T15:00:18.262Z,85.30
2019-05-05T15:02:11.636Z,88.30
2019-05-05T15:04:06.512Z,83.00
2019-05-05T15:06:04.134Z,87.70
2019-05-05T15:08:15.947Z,88.20
2019-05-05T15:10:24.050Z,89.90
2019-05-05T15:12:23.696Z,82.50
2019-05-05T15:14:17.210Z,83.40
2019-05-05T15:16:10.475Z,85.50
2019-05-05T15:18:04.026Z,84.10
2019-05-05T15:19:58.824Z,87.20
2019-05-05T15:21:53.603Z,87.50
2019-05-05T15:23:46.972Z,91.20
2019-05-05T15:25:39.291Z,93.20
2019-05-05T15:27:34.795Z,94.50
2019-05-05T15:29:29.105Z,95.30
2019-05-05T15:31:23.656Z,96.10
2019-05-05T15:33:16.323Z,96.10
2019-05-05T15:35:10.188Z,96.00
2019-05-05T15:37:03.907Z,95.30
2019-05-05T15:38:56.914Z,96.20
2019-05-05T15:40:50.230Z,95.70
2019-05-05T15:42:43.971Z,95.40
2019-05-05T15:44:37.468Z,95.30
2019-05-05T15:46:30.753Z,94.10
2019-05-05T15:48:23.675Z,93.80
2019-05-05T15:50:18.538Z,95.20
2019-05-05T15:52:13.601Z,96.00
2019-05-05T15:54:07.348Z,94.20
2019-05-05T15:56:00.207Z,93.50
2019-05-05T15:57:53.683Z,92.70
2019-05-05T15:59:46.075Z,93.70
2019-05-05T16:01:39.279Z,90.00
2019-05-05T16:03:31.891Z,90.60
2019-05-05T16:05:25.139Z,91.50
2019-05-05T16:07:18.509Z,92.30
2019-05-05T16:09:13.601Z,92.10
2019-05-05T16:11:07.285Z,91.30
2019-05-05T16:13:00.869Z,92.40
2019-05-05T16:14:55.969Z,92.30
2019-05-05T16:16:57.163Z,90.90
2019-05-05T16:19:04.904Z,92.40
2019-05-05T16:20:48.508Z,92.60
2019-05-05T16:22:49.173Z,92.20
2019-05-05T16:24:44.648Z,91.10
2019-05-05T16:26:38.155Z,91.30
2019-05-05T16:28:31.741Z,91.90
2019-05-05T16:30:25.048Z,91.80
2019-05-05T16:32:05.422Z,92.20
2019-05-05T16:33:40.995Z,92.20
2019-05-05T16:35:17.040Z,90.00
2019-05-05T16:36:54.465Z,89.60
2019-05-05T16:38:32.076Z,90.50
2019-05-05T16:40:09.882Z,91.40
2019-05-05T16:41:45.905Z,86.50
2019-05-05T16:43:21.917Z,87.70
2019-05-05T16:44:58.433Z,85.30
2019-05-05T16:46:34.553Z,87.10
2019-05-05T16:48:10.594Z,87.80
2019-05-05T16:49:47.009Z,88.40
2019-05-05T16:51:33.339Z,85.70
2019-05-05T16:53:10.819Z,84.60
2019-05-05T16:55:04.699Z,84.60
2019-05-05T16:56:40.845Z,81.30
2019-05-05T16:58:16.997Z,85.30
2019-05-05T16:59:53.643Z,79.40
2019-05-05T17:01:29.935Z,77.90
2019-05-05T17:03:06.569Z,77.00
2019-05-05T17:04:43.355Z,81.60
2019-05-05T17:06:37.897Z,82.60
2019-05-05T17:08:31.142Z,82.20
2019-05-05T17:10:24.469Z,80.30
2019-05-05T17:12:18.292Z,78.80
2019-05-05T17:14:16.188Z,79.80
2019-05-05T17:16:11.016Z,79.50
2019-05-05T17:18:05.458Z,83.40
2019-05-05T17:20:13.815Z,83.00
2019-05-05T17:22:09.147Z,84.80
2019-05-05T17:24:02.227Z,81.20
2019-05-05T17:25:55.198Z,80.10
2019-05-05T17:27:51.102Z,82.90
2019-05-05T17:29:43.970Z,90.10
2019-05-05T17:31:37.744Z,91.80
2019-05-05T17:33:30.723Z,91.90
2019-05-05T17:35:24.056Z,93.10
2019-05-05T17:37:17.265Z,93.80
2019-05-05T17:39:10.130Z,94.10
2019-05-05T17:41:04.017Z,94.50
2019-05-05T17:43:04.504Z,95.30
2019-05-05T17:45:03.665Z,95.40
2019-05-05T17:47:09.085Z,96.20
2019-05-05T17:49:15.959Z,96.10
2019-05-05T17:51:10.664Z,96.00
2019-05-05T17:53:05.512Z,95.70
2019-05-05T17:55:00.691Z,95.60
2019-05-05T17:56:55.151Z,95.80
2019-05-05T17:58:49.070Z,95.80
2019-05-05T18:00:46.960Z,96.40
2019-05-05T18:02:39.725Z,96.30
2019-05-05T18:04:33.800Z,95.70
2019-05-05T18:06:38.029Z,96.40
2019-05-05T18:08:44.305Z,96.30
2019-05-05T18:10:41.942Z,96.60
2019-05-05T18:12:39.605Z,95.90
2019-05-05T18:14:37.818Z,94.90
2019-05-05T18:16:30.886Z,95.30
2019-05-05T18:18:24.727Z,96.30
2019-05-05T18:20:18.635Z,96.30
2019-05-05T18:22:13.900Z,96.30
2019-05-05T18:24:07.274Z,95.60
2019-05-05T18:26:00.927Z,96.10
2019-05-05T18:27:55.240Z,96.60
2019-05-05T18:29:48.599Z,96.70
2019-05-05T18:31:42.395Z,97.10
2019-05-05T18:33:36.541Z,96.30
2019-05-05T18:35:31.021Z,96.60
2019-05-05T18:37:24.765Z,96.70
2019-05-05T18:39:17.928Z,97.00
2019-05-05T18:41:14.026Z,96.40
2019-05-05T18:43:10.141Z,96.80
2019-05-05T18:45:09.554Z,97.10
2019-05-05T18:47:15.654Z,96.20
2019-05-05T18:49:08.168Z,96.60
2019-05-05T18:51:03.892Z,96.80
2019-05-05T18:52:58.733Z,96.70
2019-05-05T18:54:54.452Z,96.90
2019-05-05T18:56:49.830Z,96.90
2019-05-05T18:58:44.698Z,97.10
2019-05-05T19:00:50.120Z,95.90
2019-05-05T19:02:46.005Z,95.70
2019-05-05T19:04:42.075Z,95.60
2019-05-05T19:06:41.465Z,95.80
2019-05-05T19:08:37.569Z,95.90
2019-05-05T19:10:33.697Z,94.10
2019-05-05T19:12:28.204Z,95.00
2019-05-05T19:14:24.140Z,95.00
2019-05-05T19:16:19.198Z,94.60
2019-05-05T19:18:14.114Z,94.70
2019-05-05T19:20:11.087Z,95.50
2019-05-05T19:22:06.789Z,96.10
2019-05-05T19:24:01.188Z,95.80
2019-05-05T19:25:56.121Z,95.60
2019-05-05T19:27:51.044Z,96.00
2019-05-05T19:29:46.269Z,95.70
2019-05-05T19:31:41.047Z,96.20
2019-05-05T19:33:35.900Z,96.30
2019-05-05T19:35:41.934Z,95.10
2019-05-05T19:37:26.936Z,93.90
2019-05-05T19:39:24.319Z,94.90
2019-05-05T19:41:19.311Z,94.80
2019-05-05T19:43:14.039Z,95.10
2019-05-05T19:45:08.951Z,94.60
2019-05-05T19:47:14.029Z,94.30
2019-05-05T19:49:15.503Z,92.40
2019-05-05T19:51:14.165Z,92.90
2019-05-05T19:53:10.199Z,92.30
2019-05-05T19:55:06.140Z,92.60
2019-05-05T19:57:01.068Z,92.80
2019-05-05T19:59:01.389Z,92.50
2019-05-05T20:00:51.412Z,92.70
2019-05-05T20:02:54.863Z,93.70
2019-05-05T20:04:44.473Z,93.90
2019-05-05T20:06:39.455Z,92.60
2019-05-05T20:08:41.152Z,94.10
2019-05-05T20:10:29.829Z,93.60
2019-05-05T20:12:24.090Z,93.50
2019-05-05T20:14:18.348Z,93.90
2019-05-05T20:16:22.612Z,93.10
2019-05-05T20:18:16.120Z,93.10
2019-05-05T20:20:10.737Z,93.00
2019-05-05T20:22:05.306Z,92.60
2019-05-05T20:23:58.922Z,93.20
2019-05-05T20:25:53.783Z,92.60
2019-05-05T20:27:47.385Z,92.00
2019-05-05T20:29:41.121Z,92.10
2019-05-05T20:31:34.732Z,91.10
2019-05-05T20:33:46.856Z,92.10
2019-05-05T20:35:41.855Z,92.30
2019-05-05T20:37:39.365Z,92.90
2019-05-05T20:39:32.618Z,93.30
2019-05-05T20:41:25.994Z,93.00
2019-05-05T20:43:19.444Z,93.30
2019-05-05T20:45:15.685Z,93.20
2019-05-05T20:47:08.708Z,93.50
2019-05-05T20:49:03.924Z,93.00
2019-05-05T20:50:56.736Z,99.90
2019-05-05T20:52:49.931Z,94.00
2019-05-05T20:54:44.108Z,93.30
2019-05-05T20:56:37.281Z,93.30
2019-05-05T20:58:30.212Z,93.60
2019-05-05T21:00:24.244Z,94.30
2019-05-05T21:02:17.239Z,94.70
2019-05-05T21:04:10.533Z,94.50
2019-05-05T21:06:04.390Z,94.10
2019-05-05T21:07:58.217Z,94.20
2019-05-05T21:09:50.595Z,94.20
2019-05-05T21:11:43.763Z,95.00
2019-05-05T21:13:36.888Z,95.60
2019-05-05T21:15:29.806Z,94.50
2019-05-05T21:17:24.199Z,94.30
2019-05-05T21:19:17.868Z,94.00
2019-05-05T21:21:13.898Z,93.90
2019-05-05T21:23:26.853Z,95.00
2019-05-05T21:25:36.668Z,95.20
2019-05-05T21:27:29.840Z,94.20
2019-05-05T21:29:23.773Z,94.50
2019-05-05T21:31:17.099Z,94.30
2019-05-05T21:33:10.044Z,95.20
2019-05-05T21:35:02.977Z,95.20
2019-05-05T21:36:56.232Z,95.10
2019-05-05T21:38:49.503Z,95.30
2019-05-05T21:40:44.021Z,95.50
2019-05-05T21:42:37.518Z,95.70
2019-05-05T21:44:30.768Z,95.20
2019-05-05T21:46:24.129Z,95.40
2019-05-05T21:48:17.534Z,94.30
2019-05-05T21:50:14.328Z,93.90
2019-05-05T21:52:14.459Z,94.70
2019-05-05T21:54:25.322Z,94.90
2019-05-05T21:56:29.089Z,95.00
2019-05-05T21:58:25.372Z,95.40
2019-05-05T22:00:24.019Z,95.30
2019-05-05T22:02:18.272Z,95.50
2019-05-05T22:04:13.188Z,95.00
2019-05-05T22:06:06.136Z,95.20
2019-05-05T22:08:00.191Z,95.80
2019-05-05T22:09:54.431Z,95.30
2019-05-05T22:11:47.871Z,94.80
2019-05-05T22:13:40.708Z,95.10
2019-05-05T22:15:33.674Z,95.10
2019-05-05T22:17:28.395Z,95.00
2019-05-05T22:19:24.001Z,94.50
2019-05-05T22:21:23.041Z,94.70
2019-05-05T22:23:16.394Z,94.70
2019-05-05T22:25:09.845Z,94.50
2019-05-05T22:27:04.688Z,94.90
2019-05-05T22:28:58.248Z,94.00
2019-05-05T22:30:51.217Z,94.30
2019-05-05T22:32:44.154Z,94.30
2019-05-05T22:34:37.331Z,94.80
2019-05-05T22:36:30.500Z,94.40
2019-05-05T22:38:24.562Z,95.00
2019-05-05T22:40:24.383Z,94.60
2019-05-05T22:42:16.657Z,93.80
2019-05-05T22:44:09.793Z,94.90
2019-05-05T22:46:03.595Z,94.50
2019-05-05T22:47:57.377Z,95.00
2019-05-05T22:49:49.678Z,94.80
2019-05-05T22:51:44.693Z,94.80
2019-05-05T22:53:37.824Z,94.80
2019-05-05T22:55:30.191Z,94.50
2019-05-05T22:57:24.727Z,94.70
2019-05-05T22:59:18.294Z,94.60
2019-05-05T23:01:13.622Z,94.60
2019-05-05T23:03:17.295Z,95.20
2019-05-05T23:05:11.155Z,94.90
2019-05-05T23:07:08.600Z,95.50
2019-05-05T23:09:04.004Z,94.50
2019-05-05T23:10:58.356Z,94.80
2019-05-05T23:12:51.729Z,95.60
2019-05-05T23:14:44.877Z,94.50
2019-05-05T23:16:39.600Z,95.80
2019-05-05T23:18:34.612Z,95.70
2019-05-05T23:21:00.207Z,95.60
2019-05-05T23:23:07.673Z,95.00
2019-05-05T23:25:20.676Z,96.00
2019-05-05T23:27:34.227Z,95.90
2019-05-05T23:29:26.739Z,96.00
2019-05-05T23:31:19.902Z,96.10
2019-05-05T23:33:13.860Z,95.80
2019-05-05T23:35:06.735Z,95.80
2019-05-05T23:37:00.008Z,96.10
2019-05-05T23:38:54.923Z,96.60
2019-05-05T23:40:48.078Z,96.20
2019-05-05T23:42:41.069Z,96.30
2019-05-05T23:44:34.574Z,96.30
2019-05-05T23:46:28.028Z,96.50
2019-05-05T23:48:21.208Z,97.10
2019-05-05T23:50:14.814Z,97.00
2019-05-05T23:52:07.128Z,96.50
2019-05-05T23:53:59.823Z,96.70
2019-05-05T23:55:54.590Z,97.00
2019-05-05T23:57:48.592Z,96.70
2019-05-05T23:59:41.284Z,96.10
